createdAt,value
2023-02-06T00:01:47.742Z,100.00
2023-02-06T00:04:49.150Z,100.00
2023-02-06T00:07:50.567Z,100.00
2023-02-06T00:10:52.534Z,100.00
2023-02-06T00:13:53.947Z,100.00
2023-02-06T00:16:55.439Z,100.00
2023-02-06T00:19:56.827Z,100.00
2023-02-06T00:22:58.224Z,100.00
2023-02-06T00:25:59.605Z,100.00
2023-02-06T00:29:01.069Z,100.00
2023-02-06T00:32:02.579Z,100.00
2023-02-06T00:35:04.276Z,100.00
2023-02-06T00:38:06.661Z,100.00
2023-02-06T00:41:08.181Z,100.00
2023-02-06T00:44:09.825Z,100.00
2023-02-06T00:47:11.256Z,100.00
2023-02-06T00:50:12.672Z,100.00
2023-02-06T00:53:14.119Z,100.00
2023-02-06T00:56:15.528Z,100.00
2023-02-06T00:59:17.008Z,100.00
2023-02-06T01:02:18.481Z,100.00
2023-02-06T01:05:19.909Z,100.00
2023-02-06T01:08:21.396Z,100.00
2023-02-06T01:11:24.949Z,100.00
2023-02-06T01:14:27.547Z,100.00
2023-02-06T01:17:31.877Z,100.00
2023-02-06T01:20:34.375Z,100.00
2023-02-06T01:23:39.377Z,100.00
2023-02-06T01:26:40.769Z,100.00
2023-02-06T01:29:42.223Z,100.00
2023-02-06T01:32:43.673Z,100.00
2023-02-06T01:35:45.175Z,100.00
2023-02-06T01:38:47.348Z,100.00
2023-02-06T01:41:50.849Z,100.00
2023-02-06T01:45:26.571Z,100.00
2023-02-06T01:48:42.969Z,100.00
2023-02-06T01:51:45.137Z,100.00
2023-02-06T01:54:53.163Z,100.00
2023-02-06T01:57:54.692Z,100.00
2023-02-06T02:00:57.497Z,100.00
2023-02-06T02:04:05.871Z,100.00
2023-02-06T02:07:15.238Z,100.00
2023-02-06T02:10:16.870Z,100.00
2023-02-06T02:13:18.330Z,100.00
2023-02-06T02:16:29.454Z,100.00
2023-02-06T02:19:58.816Z,100.00
2023-02-06T02:23:11.067Z,100.00
2023-02-06T02:26:38.386Z,100.00
2023-02-06T02:30:01.804Z,100.00
2023-02-06T02:33:19.866Z,100.00
2023-02-06T02:36:36.088Z,100.00
2023-02-06T02:39:48.663Z,100.00
2023-02-06T02:43:12.354Z,100.00
2023-02-06T02:46:16.662Z,100.00
2023-02-06T02:49:24.210Z,100.00
2023-02-06T02:52:25.706Z,100.00
2023-02-06T02:55:27.419Z,100.00
2023-02-06T02:58:34.810Z,100.00
2023-02-06T03:01:49.553Z,100.00
2023-02-06T03:04:52.573Z,100.00
2023-02-06T03:08:06.298Z,100.00
2023-02-06T03:11:17.146Z,100.00
2023-02-06T03:14:32.056Z,100.00
2023-02-06T03:17:41.043Z,100.00
2023-02-06T03:20:47.446Z,100.00
2023-02-06T03:23:52.631Z,100.00
2023-02-06T03:26:59.995Z,100.00
2023-02-06T03:30:04.450Z,100.00
2023-02-06T03:33:09.054Z,100.00
2023-02-06T03:36:16.960Z,100.00
2023-02-06T03:39:19.095Z,100.00
2023-02-06T03:42:21.939Z,100.00
2023-02-06T03:45:28.550Z,100.00
2023-02-06T03:48:53.832Z,100.00
2023-02-06T03:52:13.057Z,100.00
2023-02-06T03:55:18.917Z,100.00
2023-02-06T03:58:20.359Z,100.00
2023-02-06T04:01:23.226Z,100.00
2023-02-06T04:04:34.125Z,100.00
2023-02-06T04:07:37.038Z,100.00
2023-02-06T04:10:38.544Z,100.00
2023-02-06T04:13:39.981Z,100.00
2023-02-06T04:16:41.376Z,100.00
2023-02-06T04:19:42.929Z,100.00
2023-02-06T04:22:44.730Z,100.00
2023-02-06T04:25:47.028Z,100.00
2023-02-06T04:28:48.417Z,100.00
2023-02-06T04:31:49.815Z,100.00
2023-02-06T04:34:51.180Z,100.00
2023-02-06T04:37:52.962Z,100.00
2023-02-06T04:40:54.385Z,100.00
2023-02-06T04:43:55.830Z,100.00
2023-02-06T04:46:57.230Z,100.00
2023-02-06T04:49:58.631Z,100.00
2023-02-06T04:53:00.188Z,100.00
2023-02-06T04:56:05.990Z,100.00
2023-02-06T04:59:07.422Z,100.00
2023-02-06T05:02:09.593Z,100.00
2023-02-06T05:05:11.205Z,100.00
2023-02-06T05:08:12.586Z,100.00
2023-02-06T05:11:14.007Z,100.00
2023-02-06T05:14:15.493Z,100.00
2023-02-06T05:17:16.985Z,100.00
2023-02-06T05:20:19.695Z,100.00
2023-02-06T05:23:21.110Z,100.00
2023-02-06T05:26:22.603Z,100.00
2023-02-06T05:29:25.573Z,100.00
2023-02-06T05:32:26.938Z,100.00
2023-02-06T05:35:29.281Z,100.00
2023-02-06T05:38:30.802Z,100.00
2023-02-06T05:41:32.191Z,100.00
2023-02-06T05:44:33.618Z,100.00
2023-02-06T05:47:35.021Z,100.00
2023-02-06T05:50:36.446Z,100.00
2023-02-06T05:53:39.524Z,100.00
2023-02-06T05:56:40.908Z,100.00
2023-02-06T05:59:42.329Z,100.00
2023-02-06T06:02:43.740Z,100.00
2023-02-06T06:05:46.026Z,100.00
2023-02-06T06:08:47.530Z,100.00
2023-02-06T06:11:49.120Z,100.00
2023-02-06T06:14:50.518Z,100.00
2023-02-06T06:17:51.914Z,100.00
2023-02-06T06:20:53.716Z,100.00
2023-02-06T06:23:55.274Z,100.00
2023-02-06T06:26:56.751Z,100.00
2023-02-06T06:29:58.144Z,100.00
2023-02-06T06:32:59.539Z,100.00
2023-02-06T06:36:00.949Z,100.00
2023-02-06T06:39:02.896Z,100.00
2023-02-06T06:42:04.452Z,100.00
2023-02-06T06:45:06.343Z,100.00
2023-02-06T06:48:07.822Z,100.00
2023-02-06T06:51:09.216Z,100.00
2023-02-06T06:54:10.589Z,100.00
2023-02-06T06:57:13.148Z,100.00
2023-02-06T07:00:16.015Z,100.00
2023-02-06T07:03:17.406Z,100.00
2023-02-06T07:06:18.789Z,100.00
2023-02-06T07:09:20.440Z,100.00
2023-02-06T07:12:22.382Z,100.00
2023-02-06T07:15:24.006Z,100.00
2023-02-06T07:18:25.444Z,100.00
2023-02-06T07:21:26.821Z,100.00
2023-02-06T07:24:28.197Z,100.00
2023-02-06T07:27:29.769Z,100.00
2023-02-06T07:30:31.240Z,100.00
2023-02-06T07:33:32.773Z,100.00
2023-02-06T07:36:35.493Z,100.00
2023-02-06T07:39:37.031Z,100.00
2023-02-06T07:42:39.566Z,100.00
2023-02-06T07:45:51.644Z,100.00
2023-02-06T07:48:53.109Z,100.00
2023-02-06T07:51:54.520Z,100.00
2023-02-06T07:54:56.231Z,100.00
2023-02-06T07:57:57.737Z,100.00
2023-02-06T08:01:03.576Z,100.00
2023-02-06T08:04:05.130Z,100.00
2023-02-06T08:07:09.726Z,100.00
2023-02-06T08:10:11.177Z,100.00
2023-02-06T08:13:12.580Z,100.00
2023-02-06T08:16:17.150Z,100.00
2023-02-06T08:19:18.578Z,100.00
2023-02-06T08:22:19.954Z,100.00
2023-02-06T08:25:21.433Z,100.00
2023-02-06T08:28:22.839Z,100.00
2023-02-06T08:31:30.934Z,100.00
2023-02-06T08:34:32.401Z,100.00
2023-02-06T08:37:33.858Z,100.00
2023-02-06T08:40:35.282Z,100.00
2023-02-06T08:43:36.727Z,100.00
2023-02-06T08:46:38.944Z,100.00
2023-02-06T08:49:40.383Z,100.00
2023-02-06T08:52:41.832Z,100.00
2023-02-06T08:55:43.320Z,100.00
2023-02-06T08:58:44.775Z,100.00
2023-02-06T09:01:48.957Z,100.00
2023-02-06T09:04:50.941Z,100.00
2023-02-06T09:07:52.389Z,100.00
2023-02-06T09:10:53.846Z,100.00
2023-02-06T09:14:00.006Z,100.00
2023-02-06T09:17:01.400Z,100.00
2023-02-06T09:20:03.208Z,100.00
2023-02-06T09:23:04.687Z,100.00
2023-02-06T09:26:06.712Z,100.00
2023-02-06T09:29:10.564Z,100.00
2023-02-06T09:32:12.178Z,100.00
2023-02-06T09:35:13.582Z,100.00
2023-02-06T09:38:14.961Z,100.00
2023-02-06T09:41:28.551Z,100.00
2023-02-06T09:44:38.886Z,100.00
2023-02-06T09:47:47.466Z,100.00
2023-02-06T09:51:06.972Z,100.00
2023-02-06T09:54:19.842Z,100.00
2023-02-06T09:57:34.876Z,100.00
2023-02-06T10:00:55.062Z,100.00
2023-02-06T10:04:15.562Z,100.00
2023-02-06T10:07:35.340Z,100.00
2023-02-06T10:11:00.372Z,100.00
2023-02-06T10:14:06.677Z,100.00
2023-02-06T10:17:37.707Z,100.00
2023-02-06T10:20:47.119Z,100.00
2023-02-06T10:23:56.532Z,100.00
2023-02-06T10:27:01.150Z,100.00
2023-02-06T10:30:03.741Z,100.00
2023-02-06T10:33:32.566Z,100.00
2023-02-06T10:36:46.170Z,100.00
2023-02-06T10:40:12.537Z,100.00
2023-02-06T10:43:28.639Z,100.00
2023-02-06T10:46:43.514Z,100.00
2023-02-06T10:49:51.235Z,100.00
2023-02-06T10:52:55.598Z,100.00
2023-02-06T10:56:01.506Z,100.00
2023-02-06T10:59:15.888Z,100.00
2023-02-06T11:02:23.685Z,100.00
2023-02-06T11:05:30.526Z,100.00
2023-02-06T11:08:35.949Z,100.00
2023-02-06T11:11:44.743Z,100.00
2023-02-06T11:14:47.710Z,100.00
2023-02-06T11:17:51.355Z,100.00
2023-02-06T11:20:55.498Z,100.00
2023-02-06T11:24:15.066Z,100.00
2023-02-06T11:27:20.612Z,100.00
2023-02-06T11:30:37.584Z,100.00
2023-02-06T11:33:49.074Z,100.00
2023-02-06T11:36:53.479Z,100.00
2023-02-06T11:40:20.033Z,100.00
2023-02-06T11:43:24.951Z,100.00
2023-02-06T11:46:35.269Z,100.00
2023-02-06T11:49:36.733Z,100.00
2023-02-06T11:52:38.287Z,100.00
2023-02-06T11:55:42.485Z,100.00
2023-02-06T11:58:45.436Z,100.00
2023-02-06T12:01:47.809Z,100.00
2023-02-06T12:04:50.079Z,100.00
2023-02-06T12:08:03.022Z,99.88
2023-02-06T12:11:12.413Z,98.28
2023-02-06T12:14:22.696Z,95.65
2023-02-06T12:17:27.412Z,95.76
2023-02-06T12:20:34.977Z,97.11
2023-02-06T12:23:56.125Z,96.60
2023-02-06T12:27:02.206Z,93.34
2023-02-06T12:30:16.412Z,92.56
2023-02-06T12:33:25.373Z,89.69
2023-02-06T12:36:35.509Z,85.56
2023-02-06T12:39:37.210Z,76.91
2023-02-06T12:42:42.907Z,75.96
2023-02-06T12:45:59.731Z,75.04
2023-02-06T12:49:23.046Z,75.53
2023-02-06T12:52:50.116Z,76.49
2023-02-06T12:56:30.566Z,75.59
2023-02-06T13:00:09.616Z,77.76
2023-02-06T13:03:29.364Z,78.29
2023-02-06T13:06:42.786Z,73.22
2023-02-06T13:09:51.343Z,72.35
2023-02-06T13:12:55.646Z,67.91
2023-02-06T13:16:00.225Z,69.15
2023-02-06T13:19:02.616Z,68.29
2023-02-06T13:22:10.096Z,67.89
2023-02-06T13:25:29.920Z,70.04
2023-02-06T13:28:31.253Z,68.90
2023-02-06T13:31:34.454Z,67.17
2023-02-06T13:34:38.365Z,64.15
2023-02-06T13:37:48.014Z,61.84
2023-02-06T13:41:29.188Z,65.30
2023-02-06T13:44:33.569Z,65.78
2023-02-06T13:48:20.225Z,66.38
2023-02-06T13:51:35.134Z,69.03
2023-02-06T13:54:52.276Z,65.68
2023-02-06T13:58:25.014Z,64.57
2023-02-06T14:01:30.415Z,61.85
2023-02-06T14:04:33.399Z,61.10
2023-02-06T14:07:54.090Z,59.08
2023-02-06T14:11:40.980Z,57.20
2023-02-06T14:15:02.701Z,59.11
2023-02-06T14:18:35.019Z,62.95
2023-02-06T14:22:01.153Z,64.39
2023-02-06T14:25:40.835Z,66.54
2023-02-06T14:28:55.394Z,67.97
2023-02-06T14:32:28.480Z,69.12
2023-02-06T14:35:57.958Z,69.77
2023-02-06T14:39:45.884Z,68.92
2023-02-06T14:42:48.047Z,69.80
2023-02-06T14:46:06.913Z,68.90
2023-02-06T14:49:17.127Z,67.39
2023-02-06T14:52:23.169Z,66.79
2023-02-06T14:55:40.083Z,64.04
2023-02-06T14:58:46.036Z,63.04
2023-02-06T15:01:50.413Z,63.71
2023-02-06T15:04:51.823Z,64.87
2023-02-06T15:07:59.227Z,65.49
2023-02-06T15:11:04.040Z,66.11
2023-02-06T15:14:20.943Z,67.17
2023-02-06T15:17:24.021Z,67.29
2023-02-06T15:20:29.556Z,68.07
2023-02-06T15:23:36.956Z,68.02
2023-02-06T15:26:52.159Z,64.13
2023-02-06T15:29:54.323Z,63.84
2023-02-06T15:32:56.128Z,64.52
2023-02-06T15:35:59.909Z,64.15
2023-02-06T15:39:04.455Z,64.49
2023-02-06T15:42:05.933Z,64.29
2023-02-06T15:45:25.938Z,65.21
2023-02-06T15:48:48.926Z,65.80
2023-02-06T15:51:53.520Z,66.00
2023-02-06T15:54:59.892Z,66.20
2023-02-06T15:58:03.646Z,66.58
2023-02-06T16:01:08.171Z,64.33
2023-02-06T16:04:18.441Z,64.29
2023-02-06T16:07:23.570Z,64.73
2023-02-06T16:10:28.536Z,66.22
2023-02-06T16:13:32.011Z,65.57
2023-02-06T16:16:33.545Z,65.46
2023-02-06T16:19:46.516Z,65.64
2023-02-06T16:22:47.936Z,66.36
2023-02-06T16:26:01.880Z,66.58
2023-02-06T16:29:14.270Z,67.33
2023-02-06T16:32:23.920Z,67.53
2023-02-06T16:35:26.137Z,68.92
2023-02-06T16:38:27.690Z,69.38
2023-02-06T16:41:35.500Z,68.87
2023-02-06T16:44:44.785Z,69.38
2023-02-06T16:47:47.346Z,68.95
2023-02-06T16:50:49.164Z,69.51
2023-02-06T16:53:51.126Z,68.72
2023-02-06T16:56:54.296Z,69.13
2023-02-06T16:59:56.440Z,69.42
2023-02-06T17:02:57.865Z,68.43
2023-02-06T17:05:59.667Z,69.39
2023-02-06T17:09:06.476Z,69.84
2023-02-06T17:12:11.858Z,70.64
2023-02-06T17:15:15.372Z,70.86
2023-02-06T17:18:18.889Z,70.86
2023-02-06T17:21:22.337Z,71.27
2023-02-06T17:24:23.711Z,70.15
2023-02-06T17:27:25.606Z,70.15
2023-02-06T17:30:27.263Z,70.63
2023-02-06T17:33:28.727Z,71.94
2023-02-06T17:36:32.299Z,72.33
2023-02-06T17:39:35.430Z,73.35
2023-02-06T17:42:36.911Z,74.15
2023-02-06T17:45:39.596Z,73.83
2023-02-06T17:48:43.140Z,73.97
2023-02-06T17:51:45.179Z,74.84
2023-02-06T17:54:46.589Z,74.78
2023-02-06T17:57:48.541Z,74.66
2023-02-06T18:00:50.018Z,74.86
2023-02-06T18:03:52.144Z,75.03
2023-02-06T18:06:54.006Z,75.68
2023-02-06T18:09:55.663Z,74.49
2023-02-06T18:12:57.084Z,74.94
2023-02-06T18:15:58.675Z,75.11
2023-02-06T18:19:00.370Z,75.32
2023-02-06T18:22:01.934Z,75.60
2023-02-06T18:25:05.045Z,74.87
2023-02-06T18:28:06.558Z,74.95
2023-02-06T18:31:19.887Z,74.55
2023-02-06T18:34:21.316Z,75.67
2023-02-06T18:37:22.807Z,75.14
2023-02-06T18:40:24.188Z,75.84
2023-02-06T18:43:27.805Z,75.88
2023-02-06T18:46:29.634Z,76.33
2023-02-06T18:49:31.117Z,76.60
2023-02-06T18:52:32.530Z,76.85
2023-02-06T18:55:35.037Z,77.04
2023-02-06T18:58:36.462Z,77.03
2023-02-06T19:01:37.984Z,77.10
2023-02-06T19:04:40.526Z,77.43
2023-02-06T19:07:42.092Z,77.24
2023-02-06T19:10:43.606Z,77.28
2023-02-06T19:13:45.184Z,77.54
2023-02-06T19:16:47.982Z,77.80
2023-02-06T19:19:49.807Z,78.32
2023-02-06T19:22:53.464Z,75.83
2023-02-06T19:25:54.888Z,74.93
2023-02-06T19:28:56.861Z,74.37
2023-02-06T19:31:58.253Z,74.09
2023-02-06T19:34:59.665Z,73.87
2023-02-06T19:38:03.365Z,73.80
2023-02-06T19:41:10.247Z,74.71
2023-02-06T19:44:13.601Z,74.36
2023-02-06T19:47:14.966Z,75.15
2023-02-06T19:50:16.520Z,75.15
2023-02-06T19:53:18.120Z,74.71
2023-02-06T19:56:19.632Z,75.37
2023-02-06T19:59:24.479Z,75.81
2023-02-06T20:02:25.883Z,76.70
2023-02-06T20:05:27.352Z,76.92
2023-02-06T20:08:29.247Z,77.01
2023-02-06T20:11:32.051Z,77.38
2023-02-06T20:14:33.508Z,77.06
2023-02-06T20:17:34.903Z,77.80
2023-02-06T20:20:36.704Z,78.78
2023-02-06T20:23:40.654Z,78.87
2023-02-06T20:26:42.777Z,78.14
2023-02-06T20:29:45.739Z,78.55
2023-02-06T20:32:47.227Z,79.20
2023-02-06T20:35:48.605Z,79.94
2023-02-06T20:38:53.750Z,79.22
2023-02-06T20:41:55.184Z,79.87
2023-02-06T20:44:56.626Z,80.23
2023-02-06T20:47:57.999Z,80.59
2023-02-06T20:51:02.041Z,81.11
2023-02-06T20:54:03.675Z,81.38
2023-02-06T20:57:05.186Z,81.15
2023-02-06T21:00:07.114Z,81.97
2023-02-06T21:03:08.565Z,82.15
2023-02-06T21:06:10.066Z,81.89
2023-02-06T21:09:12.016Z,82.24
2023-02-06T21:12:14.395Z,82.62
2023-02-06T21:15:15.807Z,83.62
2023-02-06T21:18:17.402Z,84.75
2023-02-06T21:21:19.284Z,84.39
2023-02-06T21:24:20.741Z,84.71
2023-02-06T21:27:22.126Z,84.37
2023-02-06T21:30:23.632Z,84.95
2023-02-06T21:33:25.034Z,85.55
2023-02-06T21:36:28.021Z,85.29
2023-02-06T21:39:30.468Z,86.00
2023-02-06T21:42:32.128Z,86.34
2023-02-06T21:45:33.653Z,86.06
2023-02-06T21:48:35.250Z,86.66
2023-02-06T21:51:37.558Z,85.27
2023-02-06T21:54:39.027Z,85.77
2023-02-06T21:57:40.412Z,85.10
2023-02-06T22:00:47.313Z,84.97
2023-02-06T22:03:49.419Z,85.74
2023-02-06T22:06:50.801Z,85.56
2023-02-06T22:09:52.185Z,85.62
2023-02-06T22:12:53.676Z,86.21
2023-02-06T22:15:55.090Z,86.78
2023-02-06T22:18:57.387Z,87.16
2023-02-06T22:21:58.760Z,87.12
2023-02-06T22:25:00.142Z,87.64
2023-02-06T22:28:01.575Z,87.93
2023-02-06T22:31:11.702Z,87.40
2023-02-06T22:34:18.723Z,87.52
2023-02-06T22:37:20.210Z,87.81
2023-02-06T22:40:21.611Z,87.52
2023-02-06T22:43:22.984Z,88.07
2023-02-06T22:46:26.285Z,88.20
2023-02-06T22:49:27.729Z,88.27
2023-02-06T22:52:47.938Z,89.35
2023-02-06T22:56:07.690Z,90.24
2023-02-06T22:59:17.873Z,90.01
2023-02-06T23:02:19.385Z,90.03
2023-02-06T23:05:20.818Z,90.66
2023-02-06T23:08:22.291Z,90.46
2023-02-06T23:11:24.730Z,91.95
2023-02-06T23:14:27.832Z,92.06
2023-02-06T23:17:29.194Z,92.18
2023-02-06T23:20:30.660Z,90.98
2023-02-06T23:23:32.051Z,91.74
2023-02-06T23:26:34.504Z,92.35
2023-02-06T23:29:35.906Z,92.81
2023-02-06T23:32:37.286Z,93.82
2023-02-06T23:35:40.252Z,94.38
2023-02-06T23:38:42.136Z,94.34
2023-02-06T23:41:43.523Z,94.25
2023-02-06T23:44:44.907Z,94.59
2023-02-06T23:47:46.642Z,95.02
2023-02-06T23:50:48.068Z,94.33
2023-02-06T23:53:49.996Z,94.17
2023-02-06T23:56:51.400Z,93.91
2023-02-06T23:59:52.831Z,94.19
